Impacts TAF Board
For situational awareness. Not to be used for flight planning purposes.
IDs:

KLAS - Las Vegas/McCarran I, NV, US

Issued at 1120 UTC 21 Sep 2018
Updated at 1144 UTC 21 Sep 2018
Potential Impact None Slight Moderate High
Time<<22/12Z 22/13Z 22/14Z 22/15Z 22/16Z 22/17Z 22/18Z 22/19Z 22/20Z 22/21Z 22/22Z 22/23Z 23/00Z
Type PRVL PRVL PRVL PRVL PRVL PRVL
VIS >6 >6 >6 >6 >6 >6
CIG -- -- -- -- -- --
Cover FEW SKC SKC SKC SKC SKC
FltCat VFR VFR VFR VFR VFR VFR
WX -- -- -- -- -- --
WDir 220 VRB VRB VRB VRB VRB
WSpd 7 5 5 5 5 5
WGst -- -- -- -- -- --
Raw TAF
KLAS 211120Z 2112/2218 VRB05KT P6SM SKC
  FM211800 07007KT P6SM SKC
  FM212100 11008KT P6SM SCT120
  FM220300 22007KT P6SM FEW120
  FM221300 VRB05KT P6SM SKC


METAR Board
Radar Display
Forecast Discussion
For situational awareness. Not to be used for flight planning purposes.